IBE2658 EBBR-LEMD
Flight info
| Callsign | IBE2658 |
|---|---|
| Flight time | N/A |
| Altitude | 33000 |
| Route | CIV N872 LESDO DCT KOVIN DCT DUCRA UM728 RESMI UN857 DISAK DCT ARKIP DCT ARNAV DCT LMG DCT UVELI DCT OSMOB DCT ARVID DCT PPN DCT NOLSA DCT ALEPO DCT VASUM DCT BANEV |
| Aircraft | A21N/M-SDE2E3FGHIRWXY/LB1 |
Departure
| Time | N/A |
|---|---|
| Airport | Brussels Airport (EBBR) |
Arrival
| Time | 2026-05-01 07:28 |
|---|---|
| Airport | Adolfo Suárez Madrid–Barajas Airport (LEMD) |
| Time | Latitude | Longitude | Altitude | Speed | Heading |
|---|---|---|---|---|---|
| 2026-05-01 07:23 | 40.31939 | -3.37975 | 4998 ft | 243 kts | 320° |
| 2026-05-01 07:23 | 40.34409 | -3.40443 | 5006 ft | 211 kts | 320° |
| 2026-05-01 07:24 | 40.35565 | -3.41630 | 4879 ft | 210 kts | 320° |
| 2026-05-01 07:24 | 40.36711 | -3.42824 | 4588 ft | 211 kts | 320° |
| 2026-05-01 07:24 | 40.37878 | -3.44009 | 4271 ft | 211 kts | 322° |
| 2026-05-01 07:24 | 40.39031 | -3.45171 | 3984 ft | 207 kts | 322° |
| 2026-05-01 07:25 | 40.40150 | -3.46305 | 3715 ft | 202 kts | 322° |
| 2026-05-01 07:25 | 40.41224 | -3.47397 | 3467 ft | 188 kts | 322° |
| 2026-05-01 07:25 | 40.42211 | -3.48400 | 3219 ft | 170 kts | 323° |
| 2026-05-01 07:25 | 40.43089 | -3.49291 | 2987 ft | 151 kts | 323° |
| 2026-05-01 07:26 | 40.43893 | -3.50108 | 2786 ft | 143 kts | 323° |
| 2026-05-01 07:26 | 40.44670 | -3.50897 | 2589 ft | 139 kts | 322° |
| 2026-05-01 07:26 | 40.45427 | -3.51682 | 2381 ft | 137 kts | 322° |
| 2026-05-01 07:26 | 40.46178 | -3.52455 | 2242 ft | 137 kts | 325° |
| 2026-05-01 07:27 | 40.46934 | -3.53186 | 2071 ft | 135 kts | 323° |
| 2026-05-01 07:27 | 40.47671 | -3.53940 | 1992 ft | 134 kts | 323° |
| 2026-05-01 07:27 | 40.48322 | -3.54598 | 1986 ft | 88 kts | 322° |
| 2026-05-01 07:27 | 40.48759 | -3.55043 | 1985 ft | 73 kts | 322° |
| 2026-05-01 07:28 | 40.49106 | -3.55406 | 1984 ft | 47 kts | 315° |
| 2026-05-01 07:28 | 40.49257 | -3.55745 | 1987 ft | 30 kts | 292° |
| 2026-05-01 07:28 | 40.49299 | -3.56021 | 1987 ft | 32 kts | 270° |
| 2026-05-01 07:28 | 40.49273 | -3.56230 | 1987 ft | 16 kts | 217° |
| 2026-05-01 07:29 | 40.49152 | -3.56251 | 1984 ft | 19 kts | 180° |
| 2026-05-01 07:29 | 40.49015 | -3.56249 | 1984 ft | 19 kts | 181° |
| 2026-05-01 07:29 | 40.48955 | -3.56325 | 1986 ft | 14 kts | 267° |
| 2026-05-01 07:29 | 40.48955 | -3.56368 | 1987 ft | 0 kts | 269° |